Latest Weather Observations for Rutherglen

IDV60801

Issued at 6:02 pm EST Friday 29 April 2016 (issued every 30 minutes, with the page automatically refreshed every 10 minutes)

About weather observations | Map of weather stations | Latest weather observations for VIC | Other Formats
Station Details ID: 082039 Name: RUTHERGLEN RESEARCH Lat: -36.10 Lon: 146.51 Height: 175.0 m
Data from the previous 72 hours. | See also: Recent months at Rutherglen
Date/Time
EST
Temp
°C
App
Temp
°C
Dew
Point
Rel
Hum
%
Delta-T
°C
Wind Press
QNH
hPa
Press
MSL
hPa
Rain
since 9 am
mm
Dir
 
Spd
km/h
Gust
km/h
Spd
kts
Gust
kts
29/06:00pm 16.9 17.2 16.9 100 0.0 NE 11 17 6 9 - - 6.6
29/05:30pm 16.8 16.6 16.8 100 0.0 NE 13 19 7 10 - - 6.4
29/05:00pm 16.7 16.9 16.7 100 0.0 ENE 11 17 6 9 - - 6.2
29/04:30pm 16.6 17.1 16.6 100 0.0 ENE 9 17 5 9 - - 6.0
29/04:00pm 16.6 17.1 16.6 100 0.0 ENE 9 15 5 8 - - 5.6
29/03:30pm 16.5 17.0 16.5 100 0.0 ENE 9 15 5 8 - - 5.2
29/03:00pm 16.5 17.0 16.5 100 0.0 ENE 9 13 5 7 - - 4.4
29/02:30pm 16.6 17.1 16.6 100 0.0 ENE 9 15 5 8 - - 3.0
29/02:00pm 16.9 18.5 16.9 100 0.0 NNE 4 6 2 3 - - 1.6
29/01:30pm 17.1 17.6 16.6 97 0.3 NNW 9 13 5 7 - - 0.4
29/01:00pm 17.8 17.0 15.1 84 1.6 WNW 13 22 7 12 - - 0.0
29/12:30pm 18.8 17.8 14.5 76 2.5 WNW 13 17 7 9 - - 0.0
29/12:00pm 18.7 16.6 14.6 77 2.4 NW 19 30 10 16 - - 0.0
29/11:30am 21.0 15.1 12.4 58 4.9 NW 35 59 19 32 - - 0.0
29/11:22am 22.9 19.1 11.3 48 6.5 NNW 22 59 12 32 - - 0.0
29/11:00am 25.2 22.0 9.9 38 8.5 NNE 17 26 9 14 - - 0.0
29/10:30am 24.5 21.3 10.0 40 8.0 NE 17 28 9 15 - - 0.0
29/10:00am 23.5 19.9 9.9 42 7.5 NE 19 28 10 15 - - 0.0
29/09:30am 23.1 20.4 10.2 44 7.1 NE 15 24 8 13 - - 0.0
29/09:00am 23.0 20.0 10.8 46 6.8 ENE 17 28 9 15 - - 0.0
29/08:30am 21.1 18.1 10.6 51 5.8 ENE 17 24 9 13 - - 0.0
29/08:00am 20.3 17.7 10.7 54 5.3 ENE 15 22 8 12 - - 0.0
29/07:30am 19.1 16.5 10.6 58 4.6 ENE 15 20 8 11 - - 0.0
29/07:00am 18.7 16.4 10.5 59 4.4 ENE 13 17 7 9 - - 0.0
29/06:30am 18.7 16.0 10.3 58 4.5 ENE 15 20 8 11 - - 0.0
29/06:00am 19.2 16.8 10.2 56 4.9 ENE 13 19 7 10 - - 0.0
29/05:30am 19.2 17.2 10.2 56 4.9 ENE 11 17 6 9 - - 0.0
29/05:00am 19.1 17.1 10.1 56 4.9 ENE 11 20 6 11 - - 0.0
29/04:30am 18.8 17.0 9.6 55 4.9 ENE 9 15 5 8 - - 0.0
29/04:00am 18.5 16.6 9.0 54 5.0 ENE 9 15 5 8 - - 0.0
29/03:30am 18.4 15.7 8.9 54 5.0 ENE 13 17 7 9 - - 0.0
29/03:00am 18.5 16.5 8.5 52 5.2 ENE 9 13 5 7 - - 0.0
29/02:30am 18.9 16.4 8.3 50 5.5 ENE 11 15 6 8 - - 0.0
29/02:00am 19.9 17.1 8.6 48 6.0 ENE 13 17 7 9 - - 0.0
29/01:30am 19.7 17.2 8.1 47 6.0 ENE 11 17 6 9 - - 0.0
29/01:00am 20.3 17.4 8.3 46 6.3 ENE 13 19 7 10 - - 0.0
29/12:30am 20.4 18.3 8.4 46 6.3 ENE 9 13 5 7 - - 0.0
29/12:00am 20.9 18.4 8.2 44 6.7 ENE 11 17 6 9 - - 0.0
 
Date/Time
EST
Temp
°C
App
Temp
°C
Dew
Point
Rel
Hum
%
Delta-T
°C
Wind Press
QNH
hPa
Press
MSL
hPa
Rain
since 9 am
mm
Dir
 
Spd
km/h
Gust
km/h
Spd
kts
Gust
kts
28/11:30pm 21.0 18.5 8.3 44 6.7 ENE 11 19 6 10 - - 0.0
28/11:00pm 21.3 18.8 8.2 43 6.9 NE 11 15 6 8 - - 0.0
28/10:30pm 21.1 19.0 8.4 44 6.7 NE 9 13 5 7 - - 0.0
28/10:00pm 21.3 18.9 8.6 44 6.7 ENE 11 17 6 9 - - 0.0
28/09:30pm 21.7 19.3 8.6 43 7.0 ENE 11 17 6 9 - - 0.0
28/09:00pm 21.9 19.9 8.8 43 7.0 ENE 9 17 5 9 - - 0.0
28/08:30pm 21.8 19.9 9.0 44 6.9 ENE 9 13 5 7 - - 0.0
28/08:00pm 21.9 20.0 9.1 44 6.9 ENE 9 13 5 7 - - 0.0
28/07:30pm 22.2 20.7 9.0 43 7.1 NE 7 9 4 5 - - 0.0
28/07:00pm 22.9 20.6 9.0 41 7.5 ENE 11 15 6 8 - - 0.0
28/06:30pm 22.7 20.7 8.8 41 7.5 ENE 9 13 5 7 - - 0.0
28/06:00pm 23.1 21.5 8.8 40 7.7 NE 7 11 4 6 - - 0.0
28/05:30pm 24.3 22.6 8.3 36 8.6 NNE 7 13 4 7 - - 0.0
28/05:00pm 25.3 23.2 8.3 34 9.2 NNE 9 13 5 7 - - 0.0
28/04:30pm 26.1 24.1 8.6 33 9.5 N 9 17 5 9 - - 0.0
28/04:00pm 26.4 23.9 8.4 32 9.8 N 11 20 6 11 - - 0.0
28/03:30pm 26.5 23.7 8.5 32 9.8 N 13 20 7 11 - - 0.0
28/03:00pm 26.7 23.8 8.2 31 10.1 N 13 24 7 13 - - 0.0
28/02:30pm 27.0 24.2 8.4 31 10.2 N 13 24 7 13 - - 0.0
28/02:00pm 27.7 25.3 8.6 30 10.5 N 11 20 6 11 - - 0.0
28/01:30pm 26.6 23.8 8.6 32 9.8 N 13 20 7 11 - - 0.0
28/01:00pm 26.1 23.3 8.6 33 9.5 N 13 24 7 13 - - 0.0
28/12:30pm 25.9 23.2 8.8 34 9.4 NNE 13 20 7 11 - - 0.0
28/12:00pm 25.5 22.4 8.9 35 9.1 N 15 22 8 12 - - 0.0
28/11:30am 26.0 24.2 9.4 35 9.2 NNE 9 17 5 9 - - 0.0
28/11:00am 25.1 22.8 9.0 36 8.8 NNE 11 15 6 8 - - 0.0
28/10:30am 22.5 20.7 9.3 43 7.1 NNE 9 17 5 9 - - 0.0
28/10:00am 22.3 19.7 9.5 44 7.0 NE 13 20 7 11 - - 0.0
28/09:30am 22.2 19.6 9.4 44 6.9 NE 13 19 7 10 - - 0.0
28/09:00am 21.0 18.4 9.3 47 6.3 NE 13 19 7 10 - - 0.0
28/08:30am 19.3 17.4 9.2 52 5.4 ENE 9 13 5 7 - - 0.0
28/08:00am 18.2 16.3 9.0 55 4.8 ENE 9 13 5 7 - - 0.0
28/07:30am 17.6 16.1 9.0 57 4.5 E 7 11 4 6 - - 0.0
28/07:00am 17.7 15.7 8.8 56 4.6 ENE 9 11 5 6 - - 0.0
28/06:30am 18.2 16.2 8.7 54 5.0 NE 9 15 5 8 - - 0.0
28/06:00am 18.5 16.6 9.0 54 5.0 NE 9 13 5 7 - - 0.0
28/05:30am 18.2 15.8 8.7 54 5.0 ENE 11 15 6 8 - - 0.0
28/05:00am 18.5 16.1 8.7 53 5.1 ENE 11 17 6 9 - - 0.0
28/04:30am 18.8 16.8 8.7 52 5.3 NE 9 15 5 8 - - 0.0
28/04:00am 18.9 16.5 8.8 52 5.3 NE 11 15 6 8 - - 0.0
28/03:30am 18.4 16.3 8.4 52 5.2 ENE 9 15 5 8 - - 0.0
28/03:00am 18.2 16.5 8.5 53 5.0 NE 7 13 4 7 - - 0.0
28/02:30am 18.0 16.3 8.3 53 5.0 NE 7 13 4 7 - - 0.0
28/02:00am 18.0 15.8 8.0 52 5.1 NE 9 17 5 9 - - 0.0
28/01:30am 17.8 15.7 8.4 54 4.9 NE 9 13 5 7 - - 0.0
28/01:00am 17.3 15.6 8.2 55 4.7 NE 7 11 4 6 - - 0.0
28/12:30am 17.4 15.6 8.0 54 4.8 NE 7 9 4 5 - - 0.0
28/12:00am 18.1 16.0 8.1 52 5.2 ENE 9 15 5 8 - - 0.0
 
Date/Time
EST
Temp
°C
App
Temp
°C
Dew
Point
Rel
Hum
%
Delta-T
°C
Wind Press
QNH
hPa
Press
MSL
hPa
Rain
since 9 am
mm
Dir
 
Spd
km/h
Gust
km/h
Spd
kts
Gust
kts
27/11:30pm 18.1 16.5 8.1 52 5.2 NE 6 13 3 7 - - 0.0
27/11:00pm 18.4 16.3 8.1 51 5.3 ENE 9 15 5 8 - - 0.0
27/10:30pm 18.7 16.6 8.1 50 5.5 ENE 9 13 5 7 - - 0.0
27/10:00pm 16.7 14.5 7.9 56 4.5 ENE 9 11 5 6 - - 0.0
27/09:30pm 15.5 13.6 7.5 59 4.0 E 7 9 4 5 - - 0.0
27/09:00pm 14.6 12.8 7.2 61 3.7 E 6 9 3 5 - - 0.0
27/08:30pm 14.5 12.6 6.6 59 3.9 E 6 7 3 4 - - 0.0
27/08:00pm 15.1 13.2 6.7 57 4.1 E 6 7 3 4 - - 0.0
27/07:30pm 15.1 13.1 6.4 56 4.3 E 6 7 3 4 - - 0.0
27/07:00pm 15.3 14.4 6.1 54 4.5 CALM 0 0 0 0 - - 0.0
27/06:30pm 16.9 16.0 6.1 49 5.3 CALM 0 0 0 0 - - 0.0
27/06:00pm 19.8 17.8 6.2 41 6.8 NE 6 7 3 4 - - 0.0
27/05:30pm 22.7 20.6 6.5 35 8.3 NNE 7 11 4 6 - - 0.0
27/05:00pm 24.1 21.6 6.4 32 9.2 N 9 15 5 8 - - 0.0
27/04:30pm 24.9 22.0 6.6 31 9.6 NNE 11 17 6 9 - - 0.0
27/04:00pm 25.4 22.3 7.1 31 9.7 N 13 20 7 11 - - 0.0
27/03:30pm 26.1 23.0 7.2 30 10.1 N 13 22 7 12 - - 0.0
27/03:00pm 26.3 23.2 7.4 30 10.1 N 13 24 7 13 - - 0.0
27/02:30pm 25.3 22.6 7.4 32 9.5 N 11 22 6 12 - - 0.0
27/02:00pm 25.6 22.1 7.2 31 9.8 N 15 28 8 15 - - 0.0
27/01:30pm 25.8 21.8 8.3 33 9.5 NNE 19 32 10 17 - - 0.0
27/01:00pm 25.6 22.9 9.0 35 9.1 NNE 13 22 7 12 - - 0.0
27/12:30pm 24.9 21.9 9.2 37 8.6 N 15 24 8 13 - - 0.0
27/12:00pm 24.5 21.9 9.3 38 8.3 NE 13 20 7 11 - - 0.0
27/11:30am 24.1 21.6 9.7 40 7.9 NNE 13 26 7 14 - - 0.0
27/11:00am 22.9 20.0 9.7 43 7.2 NNE 15 24 8 13 - - 0.0
27/10:30am 21.8 18.4 9.3 45 6.7 ENE 17 28 9 15 - - 0.0
27/10:00am 21.2 18.2 9.4 47 6.4 NE 15 26 8 14 - - 0.0
27/09:30am 19.9 16.4 8.6 48 6.0 NE 17 28 9 15 - - 0.0
27/09:00am 18.9 15.0 8.6 51 5.4 ENE 19 28 10 15 - - 0.0
27/08:30am 18.1 14.1 8.1 52 5.2 ENE 19 24 10 13 - - 0.0
27/08:00am 17.1 13.4 8.0 55 4.7 E 17 22 9 12 - - 0.0
27/07:30am 15.4 12.8 7.7 60 3.9 ENE 11 17 6 9 - - 0.0
27/07:00am 14.1 11.3 6.9 62 3.5 ENE 11 15 6 8 - - 0.0
27/06:30am 14.4 11.2 6.7 60 3.8 ENE 13 20 7 11 - - 0.0
27/06:00am 14.7 10.7 6.5 58 4.0 ENE 17 22 9 12 - - 0.0
27/05:30am 14.7 10.7 6.5 58 4.0 ENE 17 22 9 12 - - 0.0
27/05:00am 14.6 10.9 6.2 57 4.1 ENE 15 22 8 12 - - 0.0
27/04:30am 13.9 10.5 5.8 58 3.9 ENE 13 19 7 10 - - 0.0
27/04:00am 12.6 9.3 6.2 65 3.1 ENE 13 19 7 10 - - 0.0
27/03:52am 11.2 8.0 6.9 75 2.1 ENE 13 17 7 9 - - 0.0
27/03:30am 5.7 3.0 2.7 81 1.2 ESE 6 9 3 5 - - 0.0
27/03:00am 6.2 4.7 3.0 80 1.3 CALM 0 0 0 0 - - 0.0
27/02:30am 6.7 4.9 3.3 79 1.4 ESE 2 6 1 3 - - 0.0
27/02:00am 5.8 3.0 3.1 83 1.1 ENE 7 9 4 5 - - 0.0
27/01:30am 6.2 4.4 3.4 82 1.2 ESE 2 7 1 4 - - 0.0
27/01:00am 6.4 4.5 3.0 79 1.4 ESE 2 7 1 4 - - 0.0
27/12:30am 6.5 4.2 2.9 78 1.5 ESE 4 6 2 3 - - 0.0
27/12:00am 6.8 5.4 3.4 79 1.4 CALM 0 0 0 0 - - 0.0
 
Date/Time
EST
Temp
°C
App
Temp
°C
Dew
Point
Rel
Hum
%
Delta-T
°C
Wind Press
QNH
hPa
Press
MSL
hPa
Rain
since 9 am
mm
Dir
 
Spd
km/h
Gust
km/h
Spd
kts
Gust
kts
26/11:30pm 7.4 6.1 4.0 79 1.5 CALM 0 0 0 0 - - 0.0
26/11:00pm 7.3 5.9 3.4 76 1.7 CALM 0 0 0 0 - - 0.0
26/10:30pm 7.7 6.2 3.2 73 1.9 CALM 0 0 0 0 - - 0.0
26/10:00pm 8.3 7.0 4.3 76 1.8 CALM 0 0 0 0 - - 0.0
26/09:30pm 8.0 6.5 3.1 71 2.1 CALM 0 0 0 0 - - 0.0
26/09:00pm 8.6 7.3 4.2 74 1.9 CALM 0 0 0 0 - - 0.0
26/08:30pm 9.5 8.2 4.3 70 2.3 CALM 0 0 0 0 - - 0.0
26/08:00pm 11.0 9.7 4.0 62 3.1 CALM 0 0 0 0 - - 0.0
26/07:30pm 10.9 9.6 4.1 63 3.1 CALM 0 0 0 0 - - 0.0
26/07:00pm 11.9 10.6 3.9 58 3.6 CALM 0 0 0 0 - - 0.0
26/06:30pm 14.1 12.9 4.4 52 4.5 CALM 0 0 0 0 - - 0.0

Other Formats:

Comma delimited format used in spreadsheet applications
http://www.bom.gov.au/fwo/IDV60801/IDV60801.95837.axf

JavaScript Object Notation format (JSON) in row-major order
http://www.bom.gov.au/fwo/IDV60801/IDV60801.95837.json